sensor_id;sensor_type;location;lat;lon;timestamp;temperature;humidity
20714;DHT22;10518;50.742;4.226;2023-04-03T00:00:26;3.50;99.90
20714;DHT22;10518;50.742;4.226;2023-04-03T00:02:51;3.50;99.90
20714;DHT22;10518;50.742;4.226;2023-04-03T00:05:17;3.50;99.90
20714;DHT22;10518;50.742;4.226;2023-04-03T00:07:42;3.40;99.90
20714;DHT22;10518;50.742;4.226;2023-04-03T00:10:08;3.40;99.90
20714;DHT22;10518;50.742;4.226;2023-04-03T00:12:34;3.50;99.90
20714;DHT22;10518;50.742;4.226;2023-04-03T00:14:59;3.60;99.90
20714;DHT22;10518;50.742;4.226;2023-04-03T00:17:25;3.90;99.90
20714;DHT22;10518;50.742;4.226;2023-04-03T00:19:51;3.80;99.90
20714;DHT22;10518;50.742;4.226;2023-04-03T00:22:16;3.60;99.90
20714;DHT22;10518;50.742;4.226;2023-04-03T00:24:42;3.70;99.90
20714;DHT22;10518;50.742;4.226;2023-04-03T00:27:07;3.70;99.90
20714;DHT22;10518;50.742;4.226;2023-04-03T00:29:33;3.60;99.90
20714;DHT22;10518;50.742;4.226;2023-04-03T00:31:58;3.50;99.90
20714;DHT22;10518;50.742;4.226;2023-04-03T00:34:24;3.40;99.90
20714;DHT22;10518;50.742;4.226;2023-04-03T00:36:50;3.40;99.90
20714;DHT22;10518;50.742;4.226;2023-04-03T00:39:16;3.40;99.90
20714;DHT22;10518;50.742;4.226;2023-04-03T00:41:42;3.40;99.90
20714;DHT22;10518;50.742;4.226;2023-04-03T00:44:22;3.40;99.90
20714;DHT22;10518;50.742;4.226;2023-04-03T00:46:48;3.40;99.90
20714;DHT22;10518;50.742;4.226;2023-04-03T00:49:13;3.40;99.90
20714;DHT22;10518;50.742;4.226;2023-04-03T00:51:39;3.40;99.90
20714;DHT22;10518;50.742;4.226;2023-04-03T00:54:06;3.30;99.90
20714;DHT22;10518;50.742;4.226;2023-04-03T00:56:33;3.30;99.90
20714;DHT22;10518;50.742;4.226;2023-04-03T00:59:02;3.20;99.90
20714;DHT22;10518;50.742;4.226;2023-04-03T01:01:29;3.30;99.90
20714;DHT22;10518;50.742;4.226;2023-04-03T01:03:57;3.30;99.90
20714;DHT22;10518;50.742;4.226;2023-04-03T01:06:27;3.30;99.90
20714;DHT22;10518;50.742;4.226;2023-04-03T01:08:54;3.30;99.90
20714;DHT22;10518;50.742;4.226;2023-04-03T01:11:20;3.40;99.90
20714;DHT22;10518;50.742;4.226;2023-04-03T01:13:47;3.40;99.90
20714;DHT22;10518;50.742;4.226;2023-04-03T01:16:13;3.70;99.90
20714;DHT22;10518;50.742;4.226;2023-04-03T01:18:40;3.60;99.90
20714;DHT22;10518;50.742;4.226;2023-04-03T01:24:03;3.40;99.90
20714;DHT22;10518;50.742;4.226;2023-04-03T01:26:33;3.30;99.90
20714;DHT22;10518;50.742;4.226;2023-04-03T01:28:59;3.20;99.90
20714;DHT22;10518;50.742;4.226;2023-04-03T01:31:26;3.20;99.90
20714;DHT22;10518;50.742;4.226;2023-04-03T01:33:53;3.20;99.90
20714;DHT22;10518;50.742;4.226;2023-04-03T01:36:29;3.10;99.90
20714;DHT22;10518;50.742;4.226;2023-04-03T01:38:56;3.10;99.90
20714;DHT22;10518;50.742;4.226;2023-04-03T01:41:22;3.00;99.90
20714;DHT22;10518;50.742;4.226;2023-04-03T01:43:48;3.10;99.90
20714;DHT22;10518;50.742;4.226;2023-04-03T01:46:15;3.20;99.90
20714;DHT22;10518;50.742;4.226;2023-04-03T01:48:41;3.20;99.90
20714;DHT22;10518;50.742;4.226;2023-04-03T01:51:07;3.10;99.90
20714;DHT22;10518;50.742;4.226;2023-04-03T01:53:33;3.10;99.90
20714;DHT22;10518;50.742;4.226;2023-04-03T01:55:58;3.10;99.90
20714;DHT22;10518;50.742;4.226;2023-04-03T01:58:24;3.10;99.90
20714;DHT22;10518;50.742;4.226;2023-04-03T02:00:51;3.00;99.90
20714;DHT22;10518;50.742;4.226;2023-04-03T02:03:16;3.00;99.90
20714;DHT22;10518;50.742;4.226;2023-04-03T02:05:42;3.00;99.90
20714;DHT22;10518;50.742;4.226;2023-04-03T02:08:07;3.00;99.90
20714;DHT22;10518;50.742;4.226;2023-04-03T02:10:33;3.10;99.90
20714;DHT22;10518;50.742;4.226;2023-04-03T02:12:59;3.10;99.90
20714;DHT22;10518;50.742;4.226;2023-04-03T02:15:24;3.10;99.90
20714;DHT22;10518;50.742;4.226;2023-04-03T02:17:50;3.10;99.90
20714;DHT22;10518;50.742;4.226;2023-04-03T02:20:16;3.00;99.90
20714;DHT22;10518;50.742;4.226;2023-04-03T02:22:42;2.90;99.90
20714;DHT22;10518;50.742;4.226;2023-04-03T02:25:08;2.90;99.90
20714;DHT22;10518;50.742;4.226;2023-04-03T02:27:33;2.90;99.90
20714;DHT22;10518;50.742;4.226;2023-04-03T02:29:59;2.90;99.90
20714;DHT22;10518;50.742;4.226;2023-04-03T02:32:24;2.90;99.90
20714;DHT22;10518;50.742;4.226;2023-04-03T02:34:50;3.00;99.90
20714;DHT22;10518;50.742;4.226;2023-04-03T02:37:15;3.00;99.90
20714;DHT22;10518;50.742;4.226;2023-04-03T02:39:41;3.00;99.90
20714;DHT22;10518;50.742;4.226;2023-04-03T02:42:06;3.00;99.90
20714;DHT22;10518;50.742;4.226;2023-04-03T02:44:32;3.00;99.90
20714;DHT22;10518;50.742;4.226;2023-04-03T02:46:58;2.90;99.90
20714;DHT22;10518;50.742;4.226;2023-04-03T02:49:24;3.00;99.90
20714;DHT22;10518;50.742;4.226;2023-04-03T02:51:49;2.90;99.90
20714;DHT22;10518;50.742;4.226;2023-04-03T02:54:16;2.90;99.90
20714;DHT22;10518;50.742;4.226;2023-04-03T02:56:42;3.00;99.90
20714;DHT22;10518;50.742;4.226;2023-04-03T02:59:07;3.10;99.90
20714;DHT22;10518;50.742;4.226;2023-04-03T03:01:33;2.90;99.90
20714;DHT22;10518;50.742;4.226;2023-04-03T03:03:59;3.10;99.90
20714;DHT22;10518;50.742;4.226;2023-04-03T03:06:25;3.10;99.90
20714;DHT22;10518;50.742;4.226;2023-04-03T03:08:51;3.00;99.90
20714;DHT22;10518;50.742;4.226;2023-04-03T03:11:17;2.90;99.90
20714;DHT22;10518;50.742;4.226;2023-04-03T03:13:42;3.00;99.90
20714;DHT22;10518;50.742;4.226;2023-04-03T03:16:08;3.10;99.90
20714;DHT22;10518;50.742;4.226;2023-04-03T03:18:34;3.10;99.90
20714;DHT22;10518;50.742;4.226;2023-04-03T03:21:01;3.10;99.90
20714;DHT22;10518;50.742;4.226;2023-04-03T03:23:28;2.90;99.90
20714;DHT22;10518;50.742;4.226;2023-04-03T03:25:59;2.90;99.90
20714;DHT22;10518;50.742;4.226;2023-04-03T03:28:25;2.90;99.90
20714;DHT22;10518;50.742;4.226;2023-04-03T03:30:51;2.70;99.90
20714;DHT22;10518;50.742;4.226;2023-04-03T03:33:17;2.70;99.90
20714;DHT22;10518;50.742;4.226;2023-04-03T03:35:43;2.70;99.90
20714;DHT22;10518;50.742;4.226;2023-04-03T03:38:09;2.70;99.90
20714;DHT22;10518;50.742;4.226;2023-04-03T03:40:35;2.80;99.90
20714;DHT22;10518;50.742;4.226;2023-04-03T03:43:01;2.80;99.90
20714;DHT22;10518;50.742;4.226;2023-04-03T03:45:27;2.90;99.90
20714;DHT22;10518;50.742;4.226;2023-04-03T03:47:52;2.90;99.90
20714;DHT22;10518;50.742;4.226;2023-04-03T03:50:18;2.80;99.90
20714;DHT22;10518;50.742;4.226;2023-04-03T03:52:43;2.70;99.90
20714;DHT22;10518;50.742;4.226;2023-04-03T03:55:09;2.70;99.90
20714;DHT22;10518;50.742;4.226;2023-04-03T03:57:35;2.70;99.90
20714;DHT22;10518;50.742;4.226;2023-04-03T04:00:01;2.70;99.90
20714;DHT22;10518;50.742;4.226;2023-04-03T04:02:27;2.60;99.90
20714;DHT22;10518;50.742;4.226;2023-04-03T04:04:52;2.50;99.90
20714;DHT22;10518;50.742;4.226;2023-04-03T04:07:18;2.50;99.90
20714;DHT22;10518;50.742;4.226;2023-04-03T04:09:43;2.50;99.90
20714;DHT22;10518;50.742;4.226;2023-04-03T04:12:09;2.50;99.90
20714;DHT22;10518;50.742;4.226;2023-04-03T04:14:35;2.60;99.90
20714;DHT22;10518;50.742;4.226;2023-04-03T04:17:00;2.50;99.90
20714;DHT22;10518;50.742;4.226;2023-04-03T04:19:27;2.50;99.90
20714;DHT22;10518;50.742;4.226;2023-04-03T04:21:53;2.40;99.90
20714;DHT22;10518;50.742;4.226;2023-04-03T04:24:19;2.30;99.90
20714;DHT22;10518;50.742;4.226;2023-04-03T04:26:44;2.30;99.90
20714;DHT22;10518;50.742;4.226;2023-04-03T04:29:10;2.40;99.90
20714;DHT22;10518;50.742;4.226;2023-04-03T04:31:36;2.40;99.90
20714;DHT22;10518;50.742;4.226;2023-04-03T04:34:01;2.30;99.90
20714;DHT22;10518;50.742;4.226;2023-04-03T04:36:27;2.20;99.90
20714;DHT22;10518;50.742;4.226;2023-04-03T04:38:53;2.30;99.90
20714;DHT22;10518;50.742;4.226;2023-04-03T04:41:21;2.50;99.90
20714;DHT22;10518;50.742;4.226;2023-04-03T04:43:49;2.50;99.90
20714;DHT22;10518;50.742;4.226;2023-04-03T04:46:15;2.40;99.90
20714;DHT22;10518;50.742;4.226;2023-04-03T04:48:41;2.40;99.90
20714;DHT22;10518;50.742;4.226;2023-04-03T04:51:07;2.40;99.90
20714;DHT22;10518;50.742;4.226;2023-04-03T04:53:32;2.30;99.90
20714;DHT22;10518;50.742;4.226;2023-04-03T04:55:58;2.20;99.90
20714;DHT22;10518;50.742;4.226;2023-04-03T04:58:24;2.10;99.90
20714;DHT22;10518;50.742;4.226;2023-04-03T05:00:58;2.20;99.90
20714;DHT22;10518;50.742;4.226;2023-04-03T05:03:24;2.20;99.90
20714;DHT22;10518;50.742;4.226;2023-04-03T05:05:49;2.20;99.90
20714;DHT22;10518;50.742;4.226;2023-04-03T05:08:15;2.20;99.90
20714;DHT22;10518;50.742;4.226;2023-04-03T05:10:40;2.30;99.90
20714;DHT22;10518;50.742;4.226;2023-04-03T05:13:07;2.30;99.90
20714;DHT22;10518;50.742;4.226;2023-04-03T05:15:33;2.20;99.90
20714;DHT22;10518;50.742;4.226;2023-04-03T05:17:58;2.20;99.90
20714;DHT22;10518;50.742;4.226;2023-04-03T05:20:24;2.20;99.90
20714;DHT22;10518;50.742;4.226;2023-04-03T05:22:50;2.10;99.90
20714;DHT22;10518;50.742;4.226;2023-04-03T05:25:15;2.10;99.90
20714;DHT22;10518;50.742;4.226;2023-04-03T05:27:41;2.00;99.90
20714;DHT22;10518;50.742;4.226;2023-04-03T05:30:07;2.00;99.90
20714;DHT22;10518;50.742;4.226;2023-04-03T05:32:33;2.00;99.90
20714;DHT22;10518;50.742;4.226;2023-04-03T05:34:58;2.00;99.90
20714;DHT22;10518;50.742;4.226;2023-04-03T05:37:24;2.10;99.90
20714;DHT22;10518;50.742;4.226;2023-04-03T05:39:50;2.10;99.90
20714;DHT22;10518;50.742;4.226;2023-04-03T05:42:15;2.10;99.90
20714;DHT22;10518;50.742;4.226;2023-04-03T05:44:41;2.20;99.90
20714;DHT22;10518;50.742;4.226;2023-04-03T05:47:07;2.10;99.90
20714;DHT22;10518;50.742;4.226;2023-04-03T05:49:32;2.30;99.90
20714;DHT22;10518;50.742;4.226;2023-04-03T05:51:58;2.30;99.90
20714;DHT22;10518;50.742;4.226;2023-04-03T05:54:29;2.40;99.90
20714;DHT22;10518;50.742;4.226;2023-04-03T05:56:55;2.60;99.90
20714;DHT22;10518;50.742;4.226;2023-04-03T05:59:21;2.50;99.90
20714;DHT22;10518;50.742;4.226;2023-04-03T06:01:47;2.50;99.90
20714;DHT22;10518;50.742;4.226;2023-04-03T06:04:14;2.70;99.90
20714;DHT22;10518;50.742;4.226;2023-04-03T06:06:57;3.00;99.90
20714;DHT22;10518;50.742;4.226;2023-04-03T06:09:25;3.40;99.90
20714;DHT22;10518;50.742;4.226;2023-04-03T06:11:51;4.30;99.90
20714;DHT22;10518;50.742;4.226;2023-04-03T06:14:17;5.30;99.90
20714;DHT22;10518;50.742;4.226;2023-04-03T06:16:43;6.00;99.90
20714;DHT22;10518;50.742;4.226;2023-04-03T06:19:11;6.00;99.90
20714;DHT22;10518;50.742;4.226;2023-04-03T06:21:37;6.50;99.90
20714;DHT22;10518;50.742;4.226;2023-04-03T06:24:03;6.80;99.90
20714;DHT22;10518;50.742;4.226;2023-04-03T06:26:29;7.00;99.90
20714;DHT22;10518;50.742;4.226;2023-04-03T06:28:55;7.10;99.90
20714;DHT22;10518;50.742;4.226;2023-04-03T06:31:21;7.50;99.90
20714;DHT22;10518;50.742;4.226;2023-04-03T06:33:47;8.10;99.90
20714;DHT22;10518;50.742;4.226;2023-04-03T06:36:12;8.00;99.90
20714;DHT22;10518;50.742;4.226;2023-04-03T06:38:38;8.00;99.90
20714;DHT22;10518;50.742;4.226;2023-04-03T06:41:04;7.80;99.90
20714;DHT22;10518;50.742;4.226;2023-04-03T06:43:29;8.10;99.90
20714;DHT22;10518;50.742;4.226;2023-04-03T06:45:56;7.80;99.90
20714;DHT22;10518;50.742;4.226;2023-04-03T06:48:22;7.70;99.90
20714;DHT22;10518;50.742;4.226;2023-04-03T06:50:48;7.30;99.90
20714;DHT22;10518;50.742;4.226;2023-04-03T06:53:14;7.20;99.90
20714;DHT22;10518;50.742;4.226;2023-04-03T06:55:40;7.30;99.90
20714;DHT22;10518;50.742;4.226;2023-04-03T06:58:06;7.80;99.90
20714;DHT22;10518;50.742;4.226;2023-04-03T07:00:32;8.00;99.90
20714;DHT22;10518;50.742;4.226;2023-04-03T07:02:57;8.30;99.90
20714;DHT22;10518;50.742;4.226;2023-04-03T07:05:24;8.00;99.90
20714;DHT22;10518;50.742;4.226;2023-04-03T07:07:50;7.90;99.90
20714;DHT22;10518;50.742;4.226;2023-04-03T07:10:16;7.60;99.90
20714;DHT22;10518;50.742;4.226;2023-04-03T07:12:41;7.70;99.90
20714;DHT22;10518;50.742;4.226;2023-04-03T07:15:07;8.00;99.90
20714;DHT22;10518;50.742;4.226;2023-04-03T07:17:33;8.60;99.90
20714;DHT22;10518;50.742;4.226;2023-04-03T07:19:59;8.30;99.90
20714;DHT22;10518;50.742;4.226;2023-04-03T07:22:25;7.90;99.90
20714;DHT22;10518;50.742;4.226;2023-04-03T07:24:51;7.80;99.90
20714;DHT22;10518;50.742;4.226;2023-04-03T07:27:16;7.80;99.90
20714;DHT22;10518;50.742;4.226;2023-04-03T07:29:43;8.20;99.90
20714;DHT22;10518;50.742;4.226;2023-04-03T07:32:09;8.20;99.90
20714;DHT22;10518;50.742;4.226;2023-04-03T07:34:35;7.80;99.90
20714;DHT22;10518;50.742;4.226;2023-04-03T07:37:01;8.20;99.90
20714;DHT22;10518;50.742;4.226;2023-04-03T07:39:28;8.40;99.90
20714;DHT22;10518;50.742;4.226;2023-04-03T07:41:54;8.40;99.90
20714;DHT22;10518;50.742;4.226;2023-04-03T07:44:21;8.00;99.90
20714;DHT22;10518;50.742;4.226;2023-04-03T07:46:47;7.80;99.90
20714;DHT22;10518;50.742;4.226;2023-04-03T07:49:14;7.20;99.90
20714;DHT22;10518;50.742;4.226;2023-04-03T07:51:40;7.00;99.90
20714;DHT22;10518;50.742;4.226;2023-04-03T07:54:06;6.80;99.90
20714;DHT22;10518;50.742;4.226;2023-04-03T07:56:32;6.60;99.90
20714;DHT22;10518;50.742;4.226;2023-04-03T07:58:57;6.90;99.90
20714;DHT22;10518;50.742;4.226;2023-04-03T08:01:23;6.70;99.90
20714;DHT22;10518;50.742;4.226;2023-04-03T08:03:49;6.40;99.90
20714;DHT22;10518;50.742;4.226;2023-04-03T08:06:16;6.50;99.90
20714;DHT22;10518;50.742;4.226;2023-04-03T08:08:42;6.60;99.90
20714;DHT22;10518;50.742;4.226;2023-04-03T08:11:07;6.50;99.90
20714;DHT22;10518;50.742;4.226;2023-04-03T08:13:34;6.50;99.90
20714;DHT22;10518;50.742;4.226;2023-04-03T08:16:09;6.40;99.90
20714;DHT22;10518;50.742;4.226;2023-04-03T08:18:34;6.30;99.90
20714;DHT22;10518;50.742;4.226;2023-04-03T08:21:00;6.40;99.90
20714;DHT22;10518;50.742;4.226;2023-04-03T08:23:26;6.80;99.90
20714;DHT22;10518;50.742;4.226;2023-04-03T08:25:51;6.90;99.90
20714;DHT22;10518;50.742;4.226;2023-04-03T08:28:17;6.90;99.90
20714;DHT22;10518;50.742;4.226;2023-04-03T08:30:43;7.10;99.90
20714;DHT22;10518;50.742;4.226;2023-04-03T08:33:09;7.00;99.90
20714;DHT22;10518;50.742;4.226;2023-04-03T08:35:41;7.00;99.90
20714;DHT22;10518;50.742;4.226;2023-04-03T08:38:08;6.90;99.90
20714;DHT22;10518;50.742;4.226;2023-04-03T08:40:34;7.00;99.90
20714;DHT22;10518;50.742;4.226;2023-04-03T08:45:45;7.10;99.90
20714;DHT22;10518;50.742;4.226;2023-04-03T08:48:21;7.30;99.90
20714;DHT22;10518;50.742;4.226;2023-04-03T08:50:56;7.30;99.90
20714;DHT22;10518;50.742;4.226;2023-04-03T08:53:25;7.20;99.90
20714;DHT22;10518;50.742;4.226;2023-04-03T08:55:55;7.10;99.90
20714;DHT22;10518;50.742;4.226;2023-04-03T08:58:31;7.20;99.90
20714;DHT22;10518;50.742;4.226;2023-04-03T09:01:10;7.30;99.90
20714;DHT22;10518;50.742;4.226;2023-04-03T09:03:40;7.50;99.90
20714;DHT22;10518;50.742;4.226;2023-04-03T09:06:12;7.60;99.90
20714;DHT22;10518;50.742;4.226;2023-04-03T09:08:46;7.60;99.90
20714;DHT22;10518;50.742;4.226;2023-04-03T09:16:45;7.80;99.90
20714;DHT22;10518;50.742;4.226;2023-04-03T09:24:38;7.70;99.90
20714;DHT22;10518;50.742;4.226;2023-04-03T09:27:05;7.80;99.90
20714;DHT22;10518;50.742;4.226;2023-04-03T09:29:35;7.60;99.90
20714;DHT22;10518;50.742;4.226;2023-04-03T09:32:18;7.50;99.90
20714;DHT22;10518;50.742;4.226;2023-04-03T09:34:47;7.50;99.90
20714;DHT22;10518;50.742;4.226;2023-04-03T09:39:58;7.70;99.90
20714;DHT22;10518;50.742;4.226;2023-04-03T09:42:25;7.50;99.90
20714;DHT22;10518;50.742;4.226;2023-04-03T09:44:57;7.40;99.90
20714;DHT22;10518;50.742;4.226;2023-04-03T09:47:26;7.40;99.90
20714;DHT22;10518;50.742;4.226;2023-04-03T09:52:37;7.60;99.90
20714;DHT22;10518;50.742;4.226;2023-04-03T09:55:13;7.60;99.90
20714;DHT22;10518;50.742;4.226;2023-04-03T09:57:40;7.70;99.90
20714;DHT22;10518;50.742;4.226;2023-04-03T10:00:23;7.60;99.90
20714;DHT22;10518;50.742;4.226;2023-04-03T10:02:54;7.60;99.90
20714;DHT22;10518;50.742;4.226;2023-04-03T10:05:38;7.70;99.90
20714;DHT22;10518;50.742;4.226;2023-04-03T10:10:40;7.80;99.90
20714;DHT22;10518;50.742;4.226;2023-04-03T10:13:07;7.80;99.90
20714;DHT22;10518;50.742;4.226;2023-04-03T10:15:46;7.80;99.90
20714;DHT22;10518;50.742;4.226;2023-04-03T10:18:24;7.80;99.90
20714;DHT22;10518;50.742;4.226;2023-04-03T10:20:54;8.10;99.90
20714;DHT22;10518;50.742;4.226;2023-04-03T10:23:51;8.10;99.90
20714;DHT22;10518;50.742;4.226;2023-04-03T10:26:49;8.10;99.90
20714;DHT22;10518;50.742;4.226;2023-04-03T10:32:26;8.20;99.90
20714;DHT22;10518;50.742;4.226;2023-04-03T10:40:56;8.50;99.90
20714;DHT22;10518;50.742;4.226;2023-04-03T10:46:53;8.80;99.90
20714;DHT22;10518;50.742;4.226;2023-04-03T10:52:39;8.90;99.90
20714;DHT22;10518;50.742;4.226;2023-04-03T10:55:27;8.70;99.90
20714;DHT22;10518;50.742;4.226;2023-04-03T10:57:56;8.60;99.90
20714;DHT22;10518;50.742;4.226;2023-04-03T11:00:37;8.60;99.90
20714;DHT22;10518;50.742;4.226;2023-04-03T11:03:14;9.00;99.90
20714;DHT22;10518;50.742;4.226;2023-04-03T11:05:44;9.00;99.90
20714;DHT22;10518;50.742;4.226;2023-04-03T11:08:26;8.90;99.90
20714;DHT22;10518;50.742;4.226;2023-04-03T11:10:55;9.00;99.90
20714;DHT22;10518;50.742;4.226;2023-04-03T11:13:26;9.10;99.90
20714;DHT22;10518;50.742;4.226;2023-04-03T11:15:54;9.30;99.90
20714;DHT22;10518;50.742;4.226;2023-04-03T11:21:05;9.20;99.90
20714;DHT22;10518;50.742;4.226;2023-04-03T11:23:37;9.20;99.90
20714;DHT22;10518;50.742;4.226;2023-04-03T11:26:11;9.10;99.90
20714;DHT22;10518;50.742;4.226;2023-04-03T11:28:37;9.10;99.90
20714;DHT22;10518;50.742;4.226;2023-04-03T11:36:24;9.20;99.90
20714;DHT22;10518;50.742;4.226;2023-04-03T11:39:38;9.10;99.90
20714;DHT22;10518;50.742;4.226;2023-04-03T11:41:39;9.20;99.90
20714;DHT22;10518;50.742;4.226;2023-04-03T11:44:24;9.30;99.90
20714;DHT22;10518;50.742;4.226;2023-04-03T11:47:00;9.20;99.90
20714;DHT22;10518;50.742;4.226;2023-04-03T12:00:56;9.50;99.90
20714;DHT22;10518;50.742;4.226;2023-04-03T12:05:51;9.50;99.90
20714;DHT22;10518;50.742;4.226;2023-04-03T12:16:42;9.70;99.90
20714;DHT22;10518;50.742;4.226;2023-04-03T12:32:10;9.70;99.90
20714;DHT22;10518;50.742;4.226;2023-04-03T12:34:56;9.70;99.90
20714;DHT22;10518;50.742;4.226;2023-04-03T12:40:23;9.70;99.90
20714;DHT22;10518;50.742;4.226;2023-04-03T12:43:13;9.90;99.90
20714;DHT22;10518;50.742;4.226;2023-04-03T12:48:29;9.90;99.90
20714;DHT22;10518;50.742;4.226;2023-04-03T12:50:57;9.70;99.90
20714;DHT22;10518;50.742;4.226;2023-04-03T12:53:42;9.80;99.90
20714;DHT22;10518;50.742;4.226;2023-04-03T12:56:25;9.60;99.90
20714;DHT22;10518;50.742;4.226;2023-04-03T12:58:53;9.70;99.90
20714;DHT22;10518;50.742;4.226;2023-04-03T13:01:24;9.60;99.90
20714;DHT22;10518;50.742;4.226;2023-04-03T13:03:54;9.60;99.90
20714;DHT22;10518;50.742;4.226;2023-04-03T13:06:27;9.80;99.90
20714;DHT22;10518;50.742;4.226;2023-04-03T13:08:58;9.60;99.90
20714;DHT22;10518;50.742;4.226;2023-04-03T13:11:34;9.50;99.90
20714;DHT22;10518;50.742;4.226;2023-04-03T13:14:17;9.50;99.90
20714;DHT22;10518;50.742;4.226;2023-04-03T13:16:53;9.70;99.90
20714;DHT22;10518;50.742;4.226;2023-04-03T13:19:19;9.80;99.90
20714;DHT22;10518;50.742;4.226;2023-04-03T13:21:45;9.70;99.90
20714;DHT22;10518;50.742;4.226;2023-04-03T13:24:12;9.80;99.90
20714;DHT22;10518;50.742;4.226;2023-04-03T13:26:38;9.70;99.90
20714;DHT22;10518;50.742;4.226;2023-04-03T13:29:21;9.70;99.90
20714;DHT22;10518;50.742;4.226;2023-04-03T13:31:53;9.80;99.90
20714;DHT22;10518;50.742;4.226;2023-04-03T13:34:20;10.00;99.90
20714;DHT22;10518;50.742;4.226;2023-04-03T13:36:57;10.00;99.90
20714;DHT22;10518;50.742;4.226;2023-04-03T13:39:32;10.00;99.90
20714;DHT22;10518;50.742;4.226;2023-04-03T13:42:00;9.90;99.90
20714;DHT22;10518;50.742;4.226;2023-04-03T13:44:37;9.80;99.90
20714;DHT22;10518;50.742;4.226;2023-04-03T13:47:20;10.00;99.90
20714;DHT22;10518;50.742;4.226;2023-04-03T13:50:03;10.10;99.90
20714;DHT22;10518;50.742;4.226;2023-04-03T13:52:33;10.20;99.90
20714;DHT22;10518;50.742;4.226;2023-04-03T13:55:26;10.10;99.90
20714;DHT22;10518;50.742;4.226;2023-04-03T13:57:59;10.00;99.90
20714;DHT22;10518;50.742;4.226;2023-04-03T14:03:13;10.10;99.90
20714;DHT22;10518;50.742;4.226;2023-04-03T14:05:39;10.10;99.90
20714;DHT22;10518;50.742;4.226;2023-04-03T14:08:05;10.00;99.90
20714;DHT22;10518;50.742;4.226;2023-04-03T14:10:32;10.20;99.90
20714;DHT22;10518;50.742;4.226;2023-04-03T14:12:58;10.10;99.90
20714;DHT22;10518;50.742;4.226;2023-04-03T14:15:27;9.90;99.90
20714;DHT22;10518;50.742;4.226;2023-04-03T14:17:53;9.70;99.90
20714;DHT22;10518;50.742;4.226;2023-04-03T14:20:23;9.90;99.90
20714;DHT22;10518;50.742;4.226;2023-04-03T14:22:49;10.00;99.90
20714;DHT22;10518;50.742;4.226;2023-04-03T14:25:16;10.20;99.90
20714;DHT22;10518;50.742;4.226;2023-04-03T14:27:45;10.10;99.90
20714;DHT22;10518;50.742;4.226;2023-04-03T14:30:19;10.10;99.90
20714;DHT22;10518;50.742;4.226;2023-04-03T14:32:45;10.10;99.90
20714;DHT22;10518;50.742;4.226;2023-04-03T14:35:12;10.00;99.90
20714;DHT22;10518;50.742;4.226;2023-04-03T14:37:38;9.90;99.90
20714;DHT22;10518;50.742;4.226;2023-04-03T14:40:06;10.00;99.90
20714;DHT22;10518;50.742;4.226;2023-04-03T14:42:34;10.10;99.90
20714;DHT22;10518;50.742;4.226;2023-04-03T14:45:07;10.10;99.90
20714;DHT22;10518;50.742;4.226;2023-04-03T14:47:33;10.10;99.90
20714;DHT22;10518;50.742;4.226;2023-04-03T14:50:04;10.10;99.90
20714;DHT22;10518;50.742;4.226;2023-04-03T14:52:34;10.20;99.90
20714;DHT22;10518;50.742;4.226;2023-04-03T14:55:01;10.10;99.90
20714;DHT22;10518;50.742;4.226;2023-04-03T14:57:29;10.20;99.90
20714;DHT22;10518;50.742;4.226;2023-04-03T14:59:55;10.10;99.90
20714;DHT22;10518;50.742;4.226;2023-04-03T15:02:34;10.10;99.90
20714;DHT22;10518;50.742;4.226;2023-04-03T15:05:02;10.10;99.90
20714;DHT22;10518;50.742;4.226;2023-04-03T15:07:31;10.10;99.90
20714;DHT22;10518;50.742;4.226;2023-04-03T15:09:59;10.10;99.90
20714;DHT22;10518;50.742;4.226;2023-04-03T15:12:26;10.10;99.90
20714;DHT22;10518;50.742;4.226;2023-04-03T15:14:52;10.20;99.90
20714;DHT22;10518;50.742;4.226;2023-04-03T15:17:20;10.20;99.80
20714;DHT22;10518;50.742;4.226;2023-04-03T15:19:46;10.20;99.10
20714;DHT22;10518;50.742;4.226;2023-04-03T15:22:17;10.10;99.70
20714;DHT22;10518;50.742;4.226;2023-04-03T15:24:43;10.10;99.90
20714;DHT22;10518;50.742;4.226;2023-04-03T15:27:10;10.10;99.90
20714;DHT22;10518;50.742;4.226;2023-04-03T15:29:36;10.10;99.90
20714;DHT22;10518;50.742;4.226;2023-04-03T15:32:02;10.10;99.70
20714;DHT22;10518;50.742;4.226;2023-04-03T15:34:28;10.00;99.90
20714;DHT22;10518;50.742;4.226;2023-04-03T15:36:54;10.10;99.90
20714;DHT22;10518;50.742;4.226;2023-04-03T15:39:20;10.00;99.90
20714;DHT22;10518;50.742;4.226;2023-04-03T15:41:46;10.10;99.90
20714;DHT22;10518;50.742;4.226;2023-04-03T15:44:11;10.20;98.90
20714;DHT22;10518;50.742;4.226;2023-04-03T15:46:38;10.10;99.90
20714;DHT22;10518;50.742;4.226;2023-04-03T15:49:05;10.00;99.90
20714;DHT22;10518;50.742;4.226;2023-04-03T15:51:31;10.10;99.90
20714;DHT22;10518;50.742;4.226;2023-04-03T15:53:56;10.20;99.90
20714;DHT22;10518;50.742;4.226;2023-04-03T15:56:22;10.20;99.90
20714;DHT22;10518;50.742;4.226;2023-04-03T15:58:47;10.20;99.90
20714;DHT22;10518;50.742;4.226;2023-04-03T16:01:13;10.20;99.90
20714;DHT22;10518;50.742;4.226;2023-04-03T16:03:40;10.30;99.90
20714;DHT22;10518;50.742;4.226;2023-04-03T16:06:14;10.40;99.90
20714;DHT22;10518;50.742;4.226;2023-04-03T16:08:40;10.50;99.90
20714;DHT22;10518;50.742;4.226;2023-04-03T16:11:06;10.40;99.90
20714;DHT22;10518;50.742;4.226;2023-04-03T16:13:32;10.30;99.90
20714;DHT22;10518;50.742;4.226;2023-04-03T16:15:59;10.20;99.90
20714;DHT22;10518;50.742;4.226;2023-04-03T16:18:25;10.10;99.90
20714;DHT22;10518;50.742;4.226;2023-04-03T16:20:51;10.10;99.90
20714;DHT22;10518;50.742;4.226;2023-04-03T16:23:17;10.10;99.90
20714;DHT22;10518;50.742;4.226;2023-04-03T16:25:43;10.10;99.90
20714;DHT22;10518;50.742;4.226;2023-04-03T16:28:13;10.20;99.90
20714;DHT22;10518;50.742;4.226;2023-04-03T16:30:40;10.10;99.90
20714;DHT22;10518;50.742;4.226;2023-04-03T16:33:06;10.00;99.90
20714;DHT22;10518;50.742;4.226;2023-04-03T16:35:32;9.90;99.90
20714;DHT22;10518;50.742;4.226;2023-04-03T16:37:58;9.80;99.90
20714;DHT22;10518;50.742;4.226;2023-04-03T16:40:24;9.80;99.90
20714;DHT22;10518;50.742;4.226;2023-04-03T16:42:49;10.00;99.90
20714;DHT22;10518;50.742;4.226;2023-04-03T16:45:15;10.20;99.90
20714;DHT22;10518;50.742;4.226;2023-04-03T16:47:41;10.10;99.90
20714;DHT22;10518;50.742;4.226;2023-04-03T16:50:06;10.00;99.90
20714;DHT22;10518;50.742;4.226;2023-04-03T16:52:32;10.00;99.90
20714;DHT22;10518;50.742;4.226;2023-04-03T16:54:58;10.10;99.90
20714;DHT22;10518;50.742;4.226;2023-04-03T16:57:24;10.00;99.90
20714;DHT22;10518;50.742;4.226;2023-04-03T16:59:50;10.00;99.90
20714;DHT22;10518;50.742;4.226;2023-04-03T17:02:17;10.00;99.90
20714;DHT22;10518;50.742;4.226;2023-04-03T17:04:42;9.90;99.90
20714;DHT22;10518;50.742;4.226;2023-04-03T17:07:08;9.90;99.90
20714;DHT22;10518;50.742;4.226;2023-04-03T17:09:34;10.10;99.90
20714;DHT22;10518;50.742;4.226;2023-04-03T17:11:59;10.00;99.90
20714;DHT22;10518;50.742;4.226;2023-04-03T17:14:25;9.80;99.90
20714;DHT22;10518;50.742;4.226;2023-04-03T17:16:51;9.80;99.90
20714;DHT22;10518;50.742;4.226;2023-04-03T17:19:17;9.60;99.90